sensor_id;sensor_type;location;lat;lon;timestamp;temperature;humidity
13569;DHT22;6856;51.460;7.158;2023-11-19T00:00:18;13.40;78.00
13569;DHT22;6856;51.460;7.158;2023-11-19T00:02:52;13.40;78.10
13569;DHT22;6856;51.460;7.158;2023-11-19T00:05:28;13.40;78.10
13569;DHT22;6856;51.460;7.158;2023-11-19T00:08:02;13.50;78.10
13569;DHT22;6856;51.460;7.158;2023-11-19T00:10:38;13.50;78.10
13569;DHT22;6856;51.460;7.158;2023-11-19T00:13:13;13.60;78.10
13569;DHT22;6856;51.460;7.158;2023-11-19T00:15:48;13.60;78.20
13569;DHT22;6856;51.460;7.158;2023-11-19T00:18:21;13.60;78.20
13569;DHT22;6856;51.460;7.158;2023-11-19T00:20:57;13.70;78.30
13569;DHT22;6856;51.460;7.158;2023-11-19T00:23:30;13.70;78.20
13569;DHT22;6856;51.460;7.158;2023-11-19T00:26:04;13.70;78.30
13569;DHT22;6856;51.460;7.158;2023-11-19T00:28:38;13.80;78.40
13569;DHT22;6856;51.460;7.158;2023-11-19T00:31:12;13.80;78.40
13569;DHT22;6856;51.460;7.158;2023-11-19T00:33:45;13.80;78.40
13569;DHT22;6856;51.460;7.158;2023-11-19T00:36:23;13.90;78.50
13569;DHT22;6856;51.460;7.158;2023-11-19T00:38:57;13.90;78.50
13569;DHT22;6856;51.460;7.158;2023-11-19T00:41:32;13.90;78.60
13569;DHT22;6856;51.460;7.158;2023-11-19T00:44:05;14.00;78.50
13569;DHT22;6856;51.460;7.158;2023-11-19T00:46:39;14.00;78.60
13569;DHT22;6856;51.460;7.158;2023-11-19T00:49:13;14.00;78.60
13569;DHT22;6856;51.460;7.158;2023-11-19T00:51:49;14.00;78.60
13569;DHT22;6856;51.460;7.158;2023-11-19T00:54:22;14.10;78.70
13569;DHT22;6856;51.460;7.158;2023-11-19T00:56:58;14.10;78.60
13569;DHT22;6856;51.460;7.158;2023-11-19T00:59:33;14.20;78.60
13569;DHT22;6856;51.460;7.158;2023-11-19T01:02:06;14.20;78.60
13569;DHT22;6856;51.460;7.158;2023-11-19T01:04:40;14.20;78.60
13569;DHT22;6856;51.460;7.158;2023-11-19T01:07:15;14.20;78.50
13569;DHT22;6856;51.460;7.158;2023-11-19T01:09:49;14.20;78.60
13569;DHT22;6856;51.460;7.158;2023-11-19T01:12:23;14.30;78.60
13569;DHT22;6856;51.460;7.158;2023-11-19T01:14:58;14.30;78.60
13569;DHT22;6856;51.460;7.158;2023-11-19T01:17:33;14.30;78.70
13569;DHT22;6856;51.460;7.158;2023-11-19T01:20:08;14.30;78.60
13569;DHT22;6856;51.460;7.158;2023-11-19T01:22:46;14.30;78.70
13569;DHT22;6856;51.460;7.158;2023-11-19T01:25:21;14.40;78.70
13569;DHT22;6856;51.460;7.158;2023-11-19T01:27:54;14.40;78.70
13569;DHT22;6856;51.460;7.158;2023-11-19T01:30:55;14.40;78.80
13569;DHT22;6856;51.460;7.158;2023-11-19T01:33:29;14.50;79.10
13569;DHT22;6856;51.460;7.158;2023-11-19T01:36:04;14.50;78.80
13569;DHT22;6856;51.460;7.158;2023-11-19T01:38:42;14.50;78.90
13569;DHT22;6856;51.460;7.158;2023-11-19T01:41:16;14.50;78.90
13569;DHT22;6856;51.460;7.158;2023-11-19T01:43:50;14.50;78.90
13569;DHT22;6856;51.460;7.158;2023-11-19T01:46:24;14.60;78.90
13569;DHT22;6856;51.460;7.158;2023-11-19T01:49:00;14.60;79.00
13569;DHT22;6856;51.460;7.158;2023-11-19T01:51:35;14.60;79.00
13569;DHT22;6856;51.460;7.158;2023-11-19T01:54:11;14.60;78.90
13569;DHT22;6856;51.460;7.158;2023-11-19T01:56:48;14.60;79.00
13569;DHT22;6856;51.460;7.158;2023-11-19T01:59:21;14.60;79.00
13569;DHT22;6856;51.460;7.158;2023-11-19T02:01:58;14.70;79.00
13569;DHT22;6856;51.460;7.158;2023-11-19T02:04:33;14.70;78.90
13569;DHT22;6856;51.460;7.158;2023-11-19T02:07:08;14.70;79.00
13569;DHT22;6856;51.460;7.158;2023-11-19T02:09:44;14.70;78.90
13569;DHT22;6856;51.460;7.158;2023-11-19T02:12:18;14.80;79.00
13569;DHT22;6856;51.460;7.158;2023-11-19T02:14:52;14.80;78.90
13569;DHT22;6856;51.460;7.158;2023-11-19T02:17:28;14.80;79.00
13569;DHT22;6856;51.460;7.158;2023-11-19T02:20:04;14.80;79.10
13569;DHT22;6856;51.460;7.158;2023-11-19T02:22:43;14.80;79.10
13569;DHT22;6856;51.460;7.158;2023-11-19T02:25:22;14.90;79.10
13569;DHT22;6856;51.460;7.158;2023-11-19T02:28:04;14.90;79.10
13569;DHT22;6856;51.460;7.158;2023-11-19T02:30:39;14.90;79.10
13569;DHT22;6856;51.460;7.158;2023-11-19T02:33:13;14.90;79.00
13569;DHT22;6856;51.460;7.158;2023-11-19T02:35:47;14.90;78.90
13569;DHT22;6856;51.460;7.158;2023-11-19T02:38:20;14.90;78.90
13569;DHT22;6856;51.460;7.158;2023-11-19T02:40:54;15.00;79.00
13569;DHT22;6856;51.460;7.158;2023-11-19T02:43:30;15.00;79.00
13569;DHT22;6856;51.460;7.158;2023-11-19T02:46:05;15.00;78.90
13569;DHT22;6856;51.460;7.158;2023-11-19T02:48:43;15.00;78.90
13569;DHT22;6856;51.460;7.158;2023-11-19T02:51:18;14.70;78.60
13569;DHT22;6856;51.460;7.158;2023-11-19T02:53:51;15.10;78.90
13569;DHT22;6856;51.460;7.158;2023-11-19T02:56:25;15.10;78.90
13569;DHT22;6856;51.460;7.158;2023-11-19T02:59:00;15.10;78.80
13569;DHT22;6856;51.460;7.158;2023-11-19T03:01:39;15.10;78.90
13569;DHT22;6856;51.460;7.158;2023-11-19T03:04:16;15.10;78.80
13569;DHT22;6856;51.460;7.158;2023-11-19T03:06:52;15.10;78.80
13569;DHT22;6856;51.460;7.158;2023-11-19T03:09:26;15.10;78.80
13569;DHT22;6856;51.460;7.158;2023-11-19T03:12:07;15.20;78.90
13569;DHT22;6856;51.460;7.158;2023-11-19T03:14:42;15.20;79.00
13569;DHT22;6856;51.460;7.158;2023-11-19T03:17:17;15.20;78.90
13569;DHT22;6856;51.460;7.158;2023-11-19T03:19:51;15.20;78.90
13569;DHT22;6856;51.460;7.158;2023-11-19T03:22:24;15.20;78.80
13569;DHT22;6856;51.460;7.158;2023-11-19T03:24:58;15.30;78.80
13569;DHT22;6856;51.460;7.158;2023-11-19T03:27:33;15.30;78.80
13569;DHT22;6856;51.460;7.158;2023-11-19T03:30:10;15.30;78.70
13569;DHT22;6856;51.460;7.158;2023-11-19T03:32:44;15.30;78.70
13569;DHT22;6856;51.460;7.158;2023-11-19T03:35:18;15.30;78.70
13569;DHT22;6856;51.460;7.158;2023-11-19T03:37:51;15.30;78.60
13569;DHT22;6856;51.460;7.158;2023-11-19T03:40:25;15.30;78.50
13569;DHT22;6856;51.460;7.158;2023-11-19T03:42:59;15.30;78.50
13569;DHT22;6856;51.460;7.158;2023-11-19T03:45:34;15.30;78.40
13569;DHT22;6856;51.460;7.158;2023-11-19T03:48:08;15.30;78.30
13569;DHT22;6856;51.460;7.158;2023-11-19T03:50:42;15.30;78.20
13569;DHT22;6856;51.460;7.158;2023-11-19T03:53:16;15.30;78.00
13569;DHT22;6856;51.460;7.158;2023-11-19T03:55:50;15.30;78.00
13569;DHT22;6856;51.460;7.158;2023-11-19T03:58:24;15.30;77.90
13569;DHT22;6856;51.460;7.158;2023-11-19T04:00:59;15.40;77.80
13569;DHT22;6856;51.460;7.158;2023-11-19T04:03:33;15.30;77.70
13569;DHT22;6856;51.460;7.158;2023-11-19T04:06:07;15.30;77.50
13569;DHT22;6856;51.460;7.158;2023-11-19T04:08:41;15.30;77.50
13569;DHT22;6856;51.460;7.158;2023-11-19T04:11:15;15.30;77.40
13569;DHT22;6856;51.460;7.158;2023-11-19T04:13:49;15.30;77.30
13569;DHT22;6856;51.460;7.158;2023-11-19T04:16:27;15.30;77.20
13569;DHT22;6856;51.460;7.158;2023-11-19T04:19:02;15.30;77.10
13569;DHT22;6856;51.460;7.158;2023-11-19T04:21:35;14.90;76.70
13569;DHT22;6856;51.460;7.158;2023-11-19T04:24:12;15.20;76.90
13569;DHT22;6856;51.460;7.158;2023-11-19T04:26:48;15.20;76.80
13569;DHT22;6856;51.460;7.158;2023-11-19T04:29:22;15.20;76.80
13569;DHT22;6856;51.460;7.158;2023-11-19T04:31:57;15.20;76.70
13569;DHT22;6856;51.460;7.158;2023-11-19T04:34:31;15.20;76.60
13569;DHT22;6856;51.460;7.158;2023-11-19T04:37:05;15.20;76.60
13569;DHT22;6856;51.460;7.158;2023-11-19T04:39:45;15.20;76.50
13569;DHT22;6856;51.460;7.158;2023-11-19T04:42:20;15.20;76.40
13569;DHT22;6856;51.460;7.158;2023-11-19T04:44:57;15.10;76.30
13569;DHT22;6856;51.460;7.158;2023-11-19T04:47:32;15.10;76.10
13569;DHT22;6856;51.460;7.158;2023-11-19T04:50:07;15.10;76.10
13569;DHT22;6856;51.460;7.158;2023-11-19T04:52:43;15.10;75.90
13569;DHT22;6856;51.460;7.158;2023-11-19T04:55:17;15.10;75.90
13569;DHT22;6856;51.460;7.158;2023-11-19T04:57:50;15.10;75.80
13569;DHT22;6856;51.460;7.158;2023-11-19T05:00:32;15.10;75.80
13569;DHT22;6856;51.460;7.158;2023-11-19T05:03:07;15.10;75.80
13569;DHT22;6856;51.460;7.158;2023-11-19T05:05:42;15.10;75.70
13569;DHT22;6856;51.460;7.158;2023-11-19T05:08:17;15.10;75.70
13569;DHT22;6856;51.460;7.158;2023-11-19T05:10:50;15.10;75.70
13569;DHT22;6856;51.460;7.158;2023-11-19T05:13:24;15.10;75.60
13569;DHT22;6856;51.460;7.158;2023-11-19T05:16:00;15.10;75.60
13569;DHT22;6856;51.460;7.158;2023-11-19T05:18:35;15.10;75.40
13569;DHT22;6856;51.460;7.158;2023-11-19T05:21:12;15.10;75.40
13569;DHT22;6856;51.460;7.158;2023-11-19T05:23:46;15.10;75.40
13569;DHT22;6856;51.460;7.158;2023-11-19T05:26:20;15.10;75.50
13569;DHT22;6856;51.460;7.158;2023-11-19T05:28:55;15.10;75.30
13569;DHT22;6856;51.460;7.158;2023-11-19T05:31:29;15.10;75.20
13569;DHT22;6856;51.460;7.158;2023-11-19T05:34:08;15.10;75.10
13569;DHT22;6856;51.460;7.158;2023-11-19T05:36:43;15.10;75.10
13569;DHT22;6856;51.460;7.158;2023-11-19T05:39:17;15.10;75.10
13569;DHT22;6856;51.460;7.158;2023-11-19T05:41:55;15.10;75.00
13569;DHT22;6856;51.460;7.158;2023-11-19T05:44:31;15.10;74.90
13569;DHT22;6856;51.460;7.158;2023-11-19T05:47:04;15.10;75.00
13569;DHT22;6856;51.460;7.158;2023-11-19T05:49:41;15.10;75.00
13569;DHT22;6856;51.460;7.158;2023-11-19T05:52:14;15.10;74.90
13569;DHT22;6856;51.460;7.158;2023-11-19T05:54:48;15.10;74.90
13569;DHT22;6856;51.460;7.158;2023-11-19T05:57:24;15.10;75.00
13569;DHT22;6856;51.460;7.158;2023-11-19T05:59:57;15.30;75.00
13569;DHT22;6856;51.460;7.158;2023-11-19T06:02:33;15.10;74.90
13569;DHT22;6856;51.460;7.158;2023-11-19T06:05:10;15.10;74.80
13569;DHT22;6856;51.460;7.158;2023-11-19T06:07:45;15.10;74.70
13569;DHT22;6856;51.460;7.158;2023-11-19T06:10:18;15.10;75.30
13569;DHT22;6856;51.460;7.158;2023-11-19T06:12:52;15.10;74.50
13569;DHT22;6856;51.460;7.158;2023-11-19T06:15:28;15.10;74.30
13569;DHT22;6856;51.460;7.158;2023-11-19T06:18:02;15.10;74.30
13569;DHT22;6856;51.460;7.158;2023-11-19T06:20:40;15.10;74.20
13569;DHT22;6856;51.460;7.158;2023-11-19T06:23:15;15.10;74.20
13569;DHT22;6856;51.460;7.158;2023-11-19T06:25:48;15.10;74.10
13569;DHT22;6856;51.460;7.158;2023-11-19T06:28:22;15.10;73.90
13569;DHT22;6856;51.460;7.158;2023-11-19T06:30:56;15.10;73.80
13569;DHT22;6856;51.460;7.158;2023-11-19T06:33:30;15.00;73.70
13569;DHT22;6856;51.460;7.158;2023-11-19T06:36:07;15.00;73.60
13569;DHT22;6856;51.460;7.158;2023-11-19T06:38:41;15.00;73.70
13569;DHT22;6856;51.460;7.158;2023-11-19T06:41:14;15.00;73.60
13569;DHT22;6856;51.460;7.158;2023-11-19T06:43:48;15.00;73.60
13569;DHT22;6856;51.460;7.158;2023-11-19T06:46:22;15.00;73.50
13569;DHT22;6856;51.460;7.158;2023-11-19T06:48:57;14.90;73.40
13569;DHT22;6856;51.460;7.158;2023-11-19T06:51:37;15.00;73.40
13569;DHT22;6856;51.460;7.158;2023-11-19T06:54:14;14.90;73.30
13569;DHT22;6856;51.460;7.158;2023-11-19T06:56:49;14.90;73.10
13569;DHT22;6856;51.460;7.158;2023-11-19T06:59:22;14.90;73.00
13569;DHT22;6856;51.460;7.158;2023-11-19T07:01:56;14.90;72.80
13569;DHT22;6856;51.460;7.158;2023-11-19T07:04:31;14.90;72.60
13569;DHT22;6856;51.460;7.158;2023-11-19T07:07:08;14.90;72.60
13569;DHT22;6856;51.460;7.158;2023-11-19T07:09:42;14.80;72.30
13569;DHT22;6856;51.460;7.158;2023-11-19T07:12:15;14.80;72.30
13569;DHT22;6856;51.460;7.158;2023-11-19T07:14:49;14.80;72.20
13569;DHT22;6856;51.460;7.158;2023-11-19T07:17:23;14.80;72.80
13569;DHT22;6856;51.460;7.158;2023-11-19T07:19:57;14.80;72.00
13569;DHT22;6856;51.460;7.158;2023-11-19T07:22:33;14.80;72.00
13569;DHT22;6856;51.460;7.158;2023-11-19T07:25:07;14.80;72.10
13569;DHT22;6856;51.460;7.158;2023-11-19T07:27:41;14.80;72.00
13569;DHT22;6856;51.460;7.158;2023-11-19T07:30:15;14.80;71.80
13569;DHT22;6856;51.460;7.158;2023-11-19T07:32:48;14.80;71.70
13569;DHT22;6856;51.460;7.158;2023-11-19T07:35:23;14.70;71.70
13569;DHT22;6856;51.460;7.158;2023-11-19T07:37:58;14.70;71.70
13569;DHT22;6856;51.460;7.158;2023-11-19T07:40:32;14.70;71.60
13569;DHT22;6856;51.460;7.158;2023-11-19T07:43:06;14.70;71.60
13569;DHT22;6856;51.460;7.158;2023-11-19T07:45:40;14.70;71.70
13569;DHT22;6856;51.460;7.158;2023-11-19T07:48:18;14.70;71.70
13569;DHT22;6856;51.460;7.158;2023-11-19T07:50:55;14.70;71.60
13569;DHT22;6856;51.460;7.158;2023-11-19T07:53:30;14.70;71.60
13569;DHT22;6856;51.460;7.158;2023-11-19T07:56:05;14.70;71.40
13569;DHT22;6856;51.460;7.158;2023-11-19T07:58:40;14.70;71.50
13569;DHT22;6856;51.460;7.158;2023-11-19T08:01:15;14.70;71.30
13569;DHT22;6856;51.460;7.158;2023-11-19T08:03:50;14.70;71.30
13569;DHT22;6856;51.460;7.158;2023-11-19T08:06:27;14.70;71.20
13569;DHT22;6856;51.460;7.158;2023-11-19T08:09:04;14.70;71.10
13569;DHT22;6856;51.460;7.158;2023-11-19T08:11:39;14.70;71.20
13569;DHT22;6856;51.460;7.158;2023-11-19T08:14:13;14.60;71.10
13569;DHT22;6856;51.460;7.158;2023-11-19T08:16:47;14.60;71.10
13569;DHT22;6856;51.460;7.158;2023-11-19T08:19:21;14.60;71.00
13569;DHT22;6856;51.460;7.158;2023-11-19T08:21:54;14.60;71.00
13569;DHT22;6856;51.460;7.158;2023-11-19T08:24:29;14.60;71.00
13569;DHT22;6856;51.460;7.158;2023-11-19T08:27:04;14.60;70.90
13569;DHT22;6856;51.460;7.158;2023-11-19T08:29:38;14.60;71.00
13569;DHT22;6856;51.460;7.158;2023-11-19T08:32:12;14.60;71.00
13569;DHT22;6856;51.460;7.158;2023-11-19T08:34:49;14.70;71.00
13569;DHT22;6856;51.460;7.158;2023-11-19T08:37:23;14.60;70.90
13569;DHT22;6856;51.460;7.158;2023-11-19T08:40:00;14.70;71.00
13569;DHT22;6856;51.460;7.158;2023-11-19T08:42:33;14.70;70.90
13569;DHT22;6856;51.460;7.158;2023-11-19T08:45:07;14.70;71.00
13569;DHT22;6856;51.460;7.158;2023-11-19T08:47:43;14.70;71.20
13569;DHT22;6856;51.460;7.158;2023-11-19T08:50:17;14.70;71.10
13569;DHT22;6856;51.460;7.158;2023-11-19T08:52:51;14.70;71.00
13569;DHT22;6856;51.460;7.158;2023-11-19T08:55:27;14.70;70.90
13569;DHT22;6856;51.460;7.158;2023-11-19T08:58:00;14.80;70.90
13569;DHT22;6856;51.460;7.158;2023-11-19T09:00:34;14.80;70.90
13569;DHT22;6856;51.460;7.158;2023-11-19T09:03:09;14.80;70.90
13569;DHT22;6856;51.460;7.158;2023-11-19T09:05:42;14.80;70.70
13569;DHT22;6856;51.460;7.158;2023-11-19T09:08:17;14.80;70.80
13569;DHT22;6856;51.460;7.158;2023-11-19T09:10:52;14.80;70.70
13569;DHT22;6856;51.460;7.158;2023-11-19T09:13:26;14.80;70.60
13569;DHT22;6856;51.460;7.158;2023-11-19T09:16:00;14.80;70.60
13569;DHT22;6856;51.460;7.158;2023-11-19T09:18:36;14.80;71.30
13569;DHT22;6856;51.460;7.158;2023-11-19T09:21:11;14.90;70.50
13569;DHT22;6856;51.460;7.158;2023-11-19T09:23:44;14.90;70.50
13569;DHT22;6856;51.460;7.158;2023-11-19T09:26:22;14.90;70.40
13569;DHT22;6856;51.460;7.158;2023-11-19T09:28:56;14.90;70.50
13569;DHT22;6856;51.460;7.158;2023-11-19T09:31:30;14.90;70.40
13569;DHT22;6856;51.460;7.158;2023-11-19T09:34:04;14.90;70.40
13569;DHT22;6856;51.460;7.158;2023-11-19T09:36:38;14.90;70.50
13569;DHT22;6856;51.460;7.158;2023-11-19T09:39:16;15.00;70.50
13569;DHT22;6856;51.460;7.158;2023-11-19T09:41:51;15.00;70.30
13569;DHT22;6856;51.460;7.158;2023-11-19T09:44:25;15.00;70.40
13569;DHT22;6856;51.460;7.158;2023-11-19T09:47:00;15.00;70.50
13569;DHT22;6856;51.460;7.158;2023-11-19T09:49:35;15.00;70.30
13569;DHT22;6856;51.460;7.158;2023-11-19T09:52:09;15.10;70.30
13569;DHT22;6856;51.460;7.158;2023-11-19T09:54:43;15.10;70.20
13569;DHT22;6856;51.460;7.158;2023-11-19T09:57:19;15.10;70.10
13569;DHT22;6856;51.460;7.158;2023-11-19T09:59:57;15.20;70.20
13569;DHT22;6856;51.460;7.158;2023-11-19T10:02:31;15.20;70.10
13569;DHT22;6856;51.460;7.158;2023-11-19T10:05:09;15.40;70.20
13569;DHT22;6856;51.460;7.158;2023-11-19T10:07:45;15.30;70.10
13569;DHT22;6856;51.460;7.158;2023-11-19T10:10:19;15.30;70.00
13569;DHT22;6856;51.460;7.158;2023-11-19T10:12:55;15.40;69.90
13569;DHT22;6856;51.460;7.158;2023-11-19T10:15:36;15.50;69.50
13569;DHT22;6856;51.460;7.158;2023-11-19T10:18:10;15.50;69.30
13569;DHT22;6856;51.460;7.158;2023-11-19T10:20:47;15.50;69.10
13569;DHT22;6856;51.460;7.158;2023-11-19T10:23:21;15.50;68.90
13569;DHT22;6856;51.460;7.158;2023-11-19T10:26:02;15.50;68.60
13569;DHT22;6856;51.460;7.158;2023-11-19T10:28:41;15.50;69.20
13569;DHT22;6856;51.460;7.158;2023-11-19T10:31:19;15.50;68.30
13569;DHT22;6856;51.460;7.158;2023-11-19T10:33:57;15.50;68.30
13569;DHT22;6856;51.460;7.158;2023-11-19T10:36:38;15.50;68.30
13569;DHT22;6856;51.460;7.158;2023-11-19T10:39:14;15.50;68.10
13569;DHT22;6856;51.460;7.158;2023-11-19T10:41:48;15.50;68.10
13569;DHT22;6856;51.460;7.158;2023-11-19T10:44:41;15.80;68.20
13569;DHT22;6856;51.460;7.158;2023-11-19T10:47:18;15.50;67.80
13569;DHT22;6856;51.460;7.158;2023-11-19T10:50:09;15.50;68.00
13569;DHT22;6856;51.460;7.158;2023-11-19T10:52:44;15.50;68.10
13569;DHT22;6856;51.460;7.158;2023-11-19T10:55:21;15.50;68.20
13569;DHT22;6856;51.460;7.158;2023-11-19T10:58:00;15.50;68.00
13569;DHT22;6856;51.460;7.158;2023-11-19T11:00:41;15.50;68.00
13569;DHT22;6856;51.460;7.158;2023-11-19T11:03:19;15.60;67.80
13569;DHT22;6856;51.460;7.158;2023-11-19T11:05:55;15.60;67.80
13569;DHT22;6856;51.460;7.158;2023-11-19T11:08:30;15.60;67.70
13569;DHT22;6856;51.460;7.158;2023-11-19T11:11:05;15.60;67.60
13569;DHT22;6856;51.460;7.158;2023-11-19T11:13:42;15.60;67.60
13569;DHT22;6856;51.460;7.158;2023-11-19T11:16:20;15.60;67.50
13569;DHT22;6856;51.460;7.158;2023-11-19T11:18:57;15.60;67.40
13569;DHT22;6856;51.460;7.158;2023-11-19T11:21:32;15.60;67.40
13569;DHT22;6856;51.460;7.158;2023-11-19T11:24:48;15.60;67.30
13569;DHT22;6856;51.460;7.158;2023-11-19T11:28:15;15.60;67.10
13569;DHT22;6856;51.460;7.158;2023-11-19T11:31:15;15.60;67.10
13569;DHT22;6856;51.460;7.158;2023-11-19T11:34:14;15.60;67.10
13569;DHT22;6856;51.460;7.158;2023-11-19T11:37:18;15.60;67.00
13569;DHT22;6856;51.460;7.158;2023-11-19T11:39:57;15.70;67.10
13569;DHT22;6856;51.460;7.158;2023-11-19T11:42:34;15.70;67.00
13569;DHT22;6856;51.460;7.158;2023-11-19T11:45:09;15.70;67.00
13569;DHT22;6856;51.460;7.158;2023-11-19T11:48:09;15.70;67.10
13569;DHT22;6856;51.460;7.158;2023-11-19T11:50:51;15.80;67.00
13569;DHT22;6856;51.460;7.158;2023-11-19T11:53:26;15.80;67.10
13569;DHT22;6856;51.460;7.158;2023-11-19T11:56:00;15.90;67.20
13569;DHT22;6856;51.460;7.158;2023-11-19T11:58:36;16.00;67.70
13569;DHT22;6856;51.460;7.158;2023-11-19T12:01:17;16.00;66.50
13569;DHT22;6856;51.460;7.158;2023-11-19T12:03:55;16.10;66.10
13569;DHT22;6856;51.460;7.158;2023-11-19T12:06:32;16.10;65.80
13569;DHT22;6856;51.460;7.158;2023-11-19T12:09:06;16.10;65.50
13569;DHT22;6856;51.460;7.158;2023-11-19T12:11:47;16.10;65.50
13569;DHT22;6856;51.460;7.158;2023-11-19T12:15:04;16.20;65.30
13569;DHT22;6856;51.460;7.158;2023-11-19T12:17:49;16.20;65.20
13569;DHT22;6856;51.460;7.158;2023-11-19T12:20:26;16.20;65.60
13569;DHT22;6856;51.460;7.158;2023-11-19T12:23:05;16.30;65.70
13569;DHT22;6856;51.460;7.158;2023-11-19T12:25:42;16.40;65.40
13569;DHT22;6856;51.460;7.158;2023-11-19T12:28:17;16.40;65.00
13569;DHT22;6856;51.460;7.158;2023-11-19T12:30:53;16.40;65.00
13569;DHT22;6856;51.460;7.158;2023-11-19T12:33:31;16.40;64.70
13569;DHT22;6856;51.460;7.158;2023-11-19T12:36:05;16.40;64.20
13569;DHT22;6856;51.460;7.158;2023-11-19T12:38:41;16.40;64.40
13569;DHT22;6856;51.460;7.158;2023-11-19T12:41:18;16.30;64.20
13569;DHT22;6856;51.460;7.158;2023-11-19T12:44:09;16.30;64.10
13569;DHT22;6856;51.460;7.158;2023-11-19T12:46:46;16.30;63.80
13569;DHT22;6856;51.460;7.158;2023-11-19T12:49:19;16.30;64.00
13569;DHT22;6856;51.460;7.158;2023-11-19T12:51:53;16.30;64.10
13569;DHT22;6856;51.460;7.158;2023-11-19T12:54:34;16.30;64.10
13569;DHT22;6856;51.460;7.158;2023-11-19T12:57:09;16.30;63.90
13569;DHT22;6856;51.460;7.158;2023-11-19T12:59:42;16.20;64.10
13569;DHT22;6856;51.460;7.158;2023-11-19T13:02:18;16.20;64.30
13569;DHT22;6856;51.460;7.158;2023-11-19T13:04:52;16.20;64.50
13569;DHT22;6856;51.460;7.158;2023-11-19T13:07:26;16.10;64.60
13569;DHT22;6856;51.460;7.158;2023-11-19T13:10:01;16.10;64.70
13569;DHT22;6856;51.460;7.158;2023-11-19T13:12:36;16.00;65.60
13569;DHT22;6856;51.460;7.158;2023-11-19T13:15:22;16.00;65.00
13569;DHT22;6856;51.460;7.158;2023-11-19T13:18:00;15.90;64.90
13569;DHT22;6856;51.460;7.158;2023-11-19T13:20:35;15.90;65.00
13569;DHT22;6856;51.460;7.158;2023-11-19T13:23:10;15.80;64.80
13569;DHT22;6856;51.460;7.158;2023-11-19T13:25:47;15.80;64.80
13569;DHT22;6856;51.460;7.158;2023-11-19T13:28:21;15.70;64.90
13569;DHT22;6856;51.460;7.158;2023-11-19T13:30:55;15.70;65.10
13569;DHT22;6856;51.460;7.158;2023-11-19T13:33:34;15.60;65.30
13569;DHT22;6856;51.460;7.158;2023-11-19T13:36:09;15.60;65.10
13569;DHT22;6856;51.460;7.158;2023-11-19T13:38:47;15.60;65.40
13569;DHT22;6856;51.460;7.158;2023-11-19T13:41:21;15.60;65.50
13569;DHT22;6856;51.460;7.158;2023-11-19T13:43:56;15.60;65.60
13569;DHT22;6856;51.460;7.158;2023-11-19T13:46:29;15.60;65.80
13569;DHT22;6856;51.460;7.158;2023-11-19T13:49:04;15.50;65.80
13569;DHT22;6856;51.460;7.158;2023-11-19T13:51:38;15.50;65.90
13569;DHT22;6856;51.460;7.158;2023-11-19T13:54:12;15.50;65.90
13569;DHT22;6856;51.460;7.158;2023-11-19T13:56:46;15.50;66.00
13569;DHT22;6856;51.460;7.158;2023-11-19T13:59:21;15.50;66.00
13569;DHT22;6856;51.460;7.158;2023-11-19T14:01:54;15.50;66.00
13569;DHT22;6856;51.460;7.158;2023-11-19T14:04:29;15.50;66.20
13569;DHT22;6856;51.460;7.158;2023-11-19T14:07:03;15.50;66.10
13569;DHT22;6856;51.460;7.158;2023-11-19T14:09:37;15.50;66.20
13569;DHT22;6856;51.460;7.158;2023-11-19T14:12:12;15.50;66.20
13569;DHT22;6856;51.460;7.158;2023-11-19T14:14:46;15.50;66.30
13569;DHT22;6856;51.460;7.158;2023-11-19T14:17:20;15.50;66.20
13569;DHT22;6856;51.460;7.158;2023-11-19T14:19:57;15.50;66.30
13569;DHT22;6856;51.460;7.158;2023-11-19T14:22:31;15.50;66.20
13569;DHT22;6856;51.460;7.158;2023-11-19T14:25:05;15.50;66.20
13569;DHT22;6856;51.460;7.158;2023-11-19T14:27:43;15.50;66.30
13569;DHT22;6856;51.460;7.158;2023-11-19T14:30:19;15.50;66.20
13569;DHT22;6856;51.460;7.158;2023-11-19T14:32:52;15.50;66.20
13569;DHT22;6856;51.460;7.158;2023-11-19T14:35:28;15.20;66.20
13569;DHT22;6856;51.460;7.158;2023-11-19T14:38:06;15.60;67.50
13569;DHT22;6856;51.460;7.158;2023-11-19T14:40:41;15.50;66.80
13569;DHT22;6856;51.460;7.158;2023-11-19T14:43:16;15.50;66.80
13569;DHT22;6856;51.460;7.158;2023-11-19T14:45:50;15.50;66.90
13569;DHT22;6856;51.460;7.158;2023-11-19T14:48:26;15.40;67.00
13569;DHT22;6856;51.460;7.158;2023-11-19T14:51:02;15.40;67.20
13569;DHT22;6856;51.460;7.158;2023-11-19T14:53:36;15.40;67.40
13569;DHT22;6856;51.460;7.158;2023-11-19T14:56:10;15.30;67.30
13569;DHT22;6856;51.460;7.158;2023-11-19T14:58:45;15.30;67.40
13569;DHT22;6856;51.460;7.158;2023-11-19T15:01:19;15.30;67.40
13569;DHT22;6856;51.460;7.158;2023-11-19T15:03:53;15.30;67.40
13569;DHT22;6856;51.460;7.158;2023-11-19T15:06:32;15.20;67.30
13569;DHT22;6856;51.460;7.158;2023-11-19T15:09:06;15.20;67.20
13569;DHT22;6856;51.460;7.158;2023-11-19T15:11:42;15.20;67.20
13569;DHT22;6856;51.460;7.158;2023-11-19T15:14:15;15.20;67.20
13569;DHT22;6856;51.460;7.158;2023-11-19T15:16:51;15.10;67.20
13569;DHT22;6856;51.460;7.158;2023-11-19T15:19:24;15.10;67.10
13569;DHT22;6856;51.460;7.158;2023-11-19T15:21:59;15.10;67.10
13569;DHT22;6856;51.460;7.158;2023-11-19T15:24:36;15.10;67.20
13569;DHT22;6856;51.460;7.158;2023-11-19T15:27:13;15.00;67.30
13569;DHT22;6856;51.460;7.158;2023-11-19T15:29:46;15.00;67.30
13569;DHT22;6856;51.460;7.158;2023-11-19T15:32:20;14.90;67.40
13569;DHT22;6856;51.460;7.158;2023-11-19T15:34:54;14.90;67.50
13569;DHT22;6856;51.460;7.158;2023-11-19T15:37:29;14.90;67.60
13569;DHT22;6856;51.460;7.158;2023-11-19T15:40:04;14.80;67.80
13569;DHT22;6856;51.460;7.158;2023-11-19T15:42:40;14.80;68.20
13569;DHT22;6856;51.460;7.158;2023-11-19T15:45:15;14.80;68.20
13569;DHT22;6856;51.460;7.158;2023-11-19T15:47:49;14.80;68.50
13569;DHT22;6856;51.460;7.158;2023-11-19T15:50:24;14.70;68.50
13569;DHT22;6856;51.460;7.158;2023-11-19T15:52:59;14.70;68.50
13569;DHT22;6856;51.460;7.158;2023-11-19T15:55:34;14.70;68.70
13569;DHT22;6856;51.460;7.158;2023-11-19T15:58:08;14.70;68.70
13569;DHT22;6856;51.460;7.158;2023-11-19T16:00:41;14.60;68.70
13569;DHT22;6856;51.460;7.158;2023-11-19T16:03:18;14.60;68.90
13569;DHT22;6856;51.460;7.158;2023-11-19T16:05:52;14.60;69.10
13569;DHT22;6856;51.460;7.158;2023-11-19T16:08:41;14.60;69.10
13569;DHT22;6856;51.460;7.158;2023-11-19T16:11:15;14.60;69.30
13569;DHT22;6856;51.460;7.158;2023-11-19T16:13:49;14.60;69.30
13569;DHT22;6856;51.460;7.158;2023-11-19T16:16:22;14.50;69.30
13569;DHT22;6856;51.460;7.158;2023-11-19T16:18:56;14.50;69.40
13569;DHT22;6856;51.460;7.158;2023-11-19T16:21:31;14.50;69.50
13569;DHT22;6856;51.460;7.158;2023-11-19T16:24:09;14.50;69.60
13569;DHT22;6856;51.460;7.158;2023-11-19T16:26:42;14.50;69.70
13569;DHT22;6856;51.460;7.158;2023-11-19T16:29:16;14.50;69.80
13569;DHT22;6856;51.460;7.158;2023-11-19T16:31:50;14.50;69.90
13569;DHT22;6856;51.460;7.158;2023-11-19T16:34:24;14.50;69.90
13569;DHT22;6856;51.460;7.158;2023-11-19T16:36:58;14.50;70.00
13569;DHT22;6856;51.460;7.158;2023-11-19T16:39:33;14.50;70.20